IE-0025 weather

The Forge Airstrip
County Tipperary, Ireland

Public forecast

Using degrees Celsius for public forecast. Weather courtesy of forecast.io.

Closest aviation weather report (METAR) to The Forge Airstrip

Closest report is Shannon Airport, 29.3 nm (54.4 km) WSW. Retrieved 2020/07/04 18:30 UTC (2 minutes ago):

EINN 041830Z 21014KT 2500 -RADZ SCT007 BKN015 16/15 Q1002 TEMPO BKN007

Closest aviation forecast (TAF) to The Forge Airstrip

Closest forecast is Shannon Airport, 29.3 nm (54.4 km) WSW. Retrieved 2020/07/04 18:10 UTC (22 minutes ago):

TAF EINN 041700Z 0418/0518 21012KT 9999 SCT010 BKN020 TEMPO 0418/0423 4000 -RADZ BKN010 BECMG 0419/0421 23020G35KT BECMG 0500/0502 26018G30KT TEMPO 0510/0518 26020G36KT SCT020CB PROB30 TEMPO 0511/0518 28022G41KT 5000 SHRA BKN012